Shandong Fu En — VRQG6 — position and weather

sailwx.info

Track history (hours):
 
Tides and Currents Weather Stations Pressure Air Temp Water Temp Dewpoint Dewpoint Depression Visibility Wind Speed Wind Dir Waves Ship Positions

Shandong Fu En

Last reported at 2017-Nov-17 09:16 UTC. Time now 2017-Nov-25 07:52 UTC.
Position N 36°43' W 029°44'.

Length 229 m; draft 7.1 m.

Type: Cargo ship. MMSI: 477692100.

Date/timePositionNaut miles runAvg speedWind from/ knotsBaromVisibWave heightAir tempDewpointWater temp
2017-Nov-17 09:16N 36°43' W 029°44'16612.8
2017-Nov-16 20:22N 36°24' W 026°19'513.1
2017-Nov-16 19:58N 36°23' W 026°13'613.2
2017-Nov-16 19:30N 36°22' W 026°05'613.0
2017-Nov-16 19:01N 36°22' W 025°57'713.0
2017-Nov-16 18:30N 36°21' W 025°49'613.0
2017-Nov-16 18:00N 36°20' W 025°41'713.2
2017-Nov-16 17:30N 36°19' W 025°33'713.3
2017-Nov-16 17:00N 36°18' W 025°25'613.1
2017-Nov-16 16:30N 36°17' W 025°17'713.1
2017-Nov-16 16:00N 36°16' W 025°09'713.3
2017-Nov-16 15:30N 36°15' W 025°01'713.2
2017-Nov-16 15:00N 36°14' W 024°53'713.1
2017-Nov-16 14:31N 36°13' W 024°45'612.9
2017-Nov-16 14:00N 36°12' W 024°37'713.0
2017-Nov-16 13:30N 36°11' W 024°29'713.2
2017-Nov-16 13:00N 36°10' W 024°21'613.1
2017-Nov-16 12:30N 36°09' W 024°13'712.9
2017-Nov-16 12:00N 36°08' W 024°05'713.0
2017-Nov-16 11:30N 36°07' W 023°57'613.0
2017-Nov-16 11:00N 36°07' W 023°49'812.7
2017-Nov-16 10:21N 36°05' W 023°39'  
2017-Nov-10 16:50N 35°17' W 014°20'48910.2
2017-Nov-08 16:40N 38°22' W 023°46'211.3
2017-Nov-08 16:30N 38°22' W 023°48'510.8
2017-Nov-08 16:00N 38°24' W 023°54'510.8
2017-Nov-08 15:30N 38°26' W 024°01'511.0
2017-Nov-08 15:00N 38°27' W 024°08'510.9
2017-Nov-08 14:30N 38°29' W 024°14'510.6
2017-Nov-08 14:00N 38°31' W 024°21'510.6
2017-Nov-08 13:31N 38°32' W 024°27'510.3
2017-Nov-08 13:00N 38°34' W 024°33'510.5
2017-Nov-08 12:30N 38°36' W 024°40'510.4
2017-Nov-08 12:00N 38°37' W 024°46'510.2
2017-Nov-08 11:30N 38°39' W 024°52'510.2
2017-Nov-08 11:00N 38°40' W 024°58'510.4
2017-Nov-08 10:30N 38°42' W 025°05'510.4
2017-Nov-08 10:00N 38°43' W 025°11'510.5
2017-Nov-08 09:30N 38°45' W 025°18'510.4
2017-Nov-08 09:00N 38°47' W 025°24'510.0
2017-Nov-08 08:30N 38°48' W 025°30'510.2
2017-Nov-08 08:01N 38°49' W 025°36'510.0
2017-Nov-08 07:31N 38°50' W 025°43'5 9.9
2017-Nov-08 06:59N 38°52' W 025°49'510.3
2017-Nov-08 06:30N 38°53' W 025°55'510.2
2017-Nov-08 06:01N 38°54' W 026°02'510.5
2017-Nov-08 05:30N 38°55' W 026°08'3410.0
2017-Nov-08 02:04N 39°04' W 026°51'2 9.9
2017-Nov-08 01:53N 39°05' W 026°53'7 9.9
2017-Nov-08 01:13N 39°07' W 027°01'210.0
2017-Nov-08 01:00N 39°07' W 027°04'5 9.4
2017-Nov-08 00:30N 39°09' W 027°10'5 9.7
2017-Nov-08 00:00N 39°10' W 027°15'5 9.5
2017-Nov-07 23:30N 39°12' W 027°21'5 9.4
2017-Nov-07 23:00N 39°13' W 027°27'5 9.1
2017-Nov-07 22:30N 39°14' W 027°33'5 9.1
2017-Nov-07 22:00N 39°16' W 027°38'5 9.1
2017-Nov-07 21:30N 39°17' W 027°44'4 9.0
2017-Nov-07 21:00N 39°19' W 027°50'5 9.2
2017-Nov-07 20:30N 39°20' W 027°55'5 9.1
2017-Nov-07 20:00N 39°21' W 028°01'5 9.1
2017-Nov-07 19:30N 39°23' W 028°06'5 9.0
2017-Nov-07 19:00N 39°24' W 028°12'5 9.1
2017-Nov-07 18:30N 39°25' W 028°18'5 9.2
2017-Nov-07 18:00N 39°27' W 028°23'5 9.1
2017-Nov-07 17:30N 39°28' W 028°29'5 9.3
2017-Nov-07 17:00N 39°29' W 028°35'5 9.5
2017-Nov-07 16:31N 39°31' W 028°40'5 9.4
2017-Nov-07 16:00N 39°32' W 028°46'5 9.4
2017-Nov-07 15:30N 39°33' W 028°52'5 9.5
2017-Nov-07 15:01N 39°34' W 028°58'5 9.8
2017-Nov-07 14:30N 39°35' W 029°04'510.0
2017-Nov-07 14:00N 39°37' W 029°11'5 9.9
2017-Nov-07 13:30N 39°38' W 029°17'5 9.6
2017-Nov-07 13:00N 39°39' W 029°23'5 9.5
2017-Nov-07 12:30N 39°41' W 029°29'5 9.8
2017-Nov-07 12:00N 39°42' W 029°35'5 9.8
2017-Nov-07 11:30N 39°43' W 029°41'510.1
2017-Nov-07 11:00N 39°44' W 029°47'510.0
2017-Nov-07 10:30N 39°45' W 029°54'510.0
2017-Nov-07 09:59N 39°46' W 030°00'5 9.9
2017-Nov-07 09:30N 39°47' W 030°06'  
Track history (hours):
 
Tides and Currents Weather Stations Pressure Air Temp Water Temp Dewpoint Dewpoint Depression Visibility Wind Speed Wind Dir Waves Ship Positions

Shandong Fu En

Last reported at 2017-Nov-17 09:16 UTC. Time now 2017-Nov-25 07:52 UTC.
Position N 36°43' W 029°44'.

Length 229 m; draft 7.1 m.

Type: Cargo ship. MMSI: 477692100.

Date/timePositionNaut miles runAvg speedWind from/ knotsBaromVisibWave heightAir tempDewpointWater temp
2017-Nov-17 09:16N 36°43' W 029°44'16612.8
2017-Nov-16 20:22N 36°24' W 026°19'513.1
2017-Nov-16 19:58N 36°23' W 026°13'613.2
2017-Nov-16 19:30N 36°22' W 026°05'613.0
2017-Nov-16 19:01N 36°22' W 025°57'713.0
2017-Nov-16 18:30N 36°21' W 025°49'613.0
2017-Nov-16 18:00N 36°20' W 025°41'713.2
2017-Nov-16 17:30N 36°19' W 025°33'713.3
2017-Nov-16 17:00N 36°18' W 025°25'613.1
2017-Nov-16 16:30N 36°17' W 025°17'713.1
2017-Nov-16 16:00N 36°16' W 025°09'713.3
2017-Nov-16 15:30N 36°15' W 025°01'713.2
2017-Nov-16 15:00N 36°14' W 024°53'713.1
2017-Nov-16 14:31N 36°13' W 024°45'612.9
2017-Nov-16 14:00N 36°12' W 024°37'713.0
2017-Nov-16 13:30N 36°11' W 024°29'713.2
2017-Nov-16 13:00N 36°10' W 024°21'613.1
2017-Nov-16 12:30N 36°09' W 024°13'712.9
2017-Nov-16 12:00N 36°08' W 024°05'713.0
2017-Nov-16 11:30N 36°07' W 023°57'613.0
2017-Nov-16 11:00N 36°07' W 023°49'812.7
2017-Nov-16 10:21N 36°05' W 023°39'  
2017-Nov-10 16:50N 35°17' W 014°20'48910.2
2017-Nov-08 16:40N 38°22' W 023°46'211.3
2017-Nov-08 16:30N 38°22' W 023°48'510.8
2017-Nov-08 16:00N 38°24' W 023°54'510.8
2017-Nov-08 15:30N 38°26' W 024°01'511.0
2017-Nov-08 15:00N 38°27' W 024°08'510.9
2017-Nov-08 14:30N 38°29' W 024°14'510.6
2017-Nov-08 14:00N 38°31' W 024°21'510.6
2017-Nov-08 13:31N 38°32' W 024°27'510.3
2017-Nov-08 13:00N 38°34' W 024°33'510.5
2017-Nov-08 12:30N 38°36' W 024°40'510.4
2017-Nov-08 12:00N 38°37' W 024°46'510.2
2017-Nov-08 11:30N 38°39' W 024°52'510.2
2017-Nov-08 11:00N 38°40' W 024°58'510.4
2017-Nov-08 10:30N 38°42' W 025°05'510.4
2017-Nov-08 10:00N 38°43' W 025°11'510.5
2017-Nov-08 09:30N 38°45' W 025°18'510.4
2017-Nov-08 09:00N 38°47' W 025°24'510.0
2017-Nov-08 08:30N 38°48' W 025°30'510.2
2017-Nov-08 08:01N 38°49' W 025°36'510.0
2017-Nov-08 07:31N 38°50' W 025°43'5 9.9
2017-Nov-08 06:59N 38°52' W 025°49'510.3
2017-Nov-08 06:30N 38°53' W 025°55'510.2
2017-Nov-08 06:01N 38°54' W 026°02'510.5
2017-Nov-08 05:30N 38°55' W 026°08'3410.0
2017-Nov-08 02:04N 39°04' W 026°51'2 9.9
2017-Nov-08 01:53N 39°05' W 026°53'7 9.9
2017-Nov-08 01:13N 39°07' W 027°01'210.0
2017-Nov-08 01:00N 39°07' W 027°04'5 9.4
2017-Nov-08 00:30N 39°09' W 027°10'5 9.7
2017-Nov-08 00:00N 39°10' W 027°15'5 9.5
2017-Nov-07 23:30N 39°12' W 027°21'5 9.4
2017-Nov-07 23:00N 39°13' W 027°27'5 9.1
2017-Nov-07 22:30N 39°14' W 027°33'5 9.1
2017-Nov-07 22:00N 39°16' W 027°38'5 9.1
2017-Nov-07 21:30N 39°17' W 027°44'4 9.0
2017-Nov-07 21:00N 39°19' W 027°50'5 9.2
2017-Nov-07 20:30N 39°20' W 027°55'5 9.1
2017-Nov-07 20:00N 39°21' W 028°01'5 9.1
2017-Nov-07 19:30N 39°23' W 028°06'5 9.0
2017-Nov-07 19:00N 39°24' W 028°12'5 9.1
2017-Nov-07 18:30N 39°25' W 028°18'5 9.2
2017-Nov-07 18:00N 39°27' W 028°23'5 9.1
2017-Nov-07 17:30N 39°28' W 028°29'5 9.3
2017-Nov-07 17:00N 39°29' W 028°35'5 9.5
2017-Nov-07 16:31N 39°31' W 028°40'5 9.4
2017-Nov-07 16:00N 39°32' W 028°46'5 9.4
2017-Nov-07 15:30N 39°33' W 028°52'5 9.5
2017-Nov-07 15:01N 39°34' W 028°58'5 9.8
2017-Nov-07 14:30N 39°35' W 029°04'510.0
2017-Nov-07 14:00N 39°37' W 029°11'5 9.9
2017-Nov-07 13:30N 39°38' W 029°17'5 9.6
2017-Nov-07 13:00N 39°39' W 029°23'5 9.5
2017-Nov-07 12:30N 39°41' W 029°29'5 9.8
2017-Nov-07 12:00N 39°42' W 029°35'5 9.8
2017-Nov-07 11:30N 39°43' W 029°41'510.1
2017-Nov-07 11:00N 39°44' W 029°47'510.0
2017-Nov-07 10:30N 39°45' W 029°54'510.0
2017-Nov-07 09:59N 39°46' W 030°00'5 9.9
2017-Nov-07 09:30N 39°47' W 030°06'  

Dump ship's entire track history